createdAt,value
2023-03-19T00:00:18.924Z,8.56
2023-03-19T00:01:18.855Z,8.51
2023-03-19T00:02:18.881Z,8.46
2023-03-19T00:03:18.834Z,8.31
2023-03-19T00:04:18.795Z,8.31
2023-03-19T00:05:18.786Z,8.33
2023-03-19T00:06:18.827Z,8.28
2023-03-19T00:07:18.766Z,8.24
2023-03-19T00:08:18.748Z,8.30
2023-03-19T00:09:18.745Z,8.26
2023-03-19T00:10:18.726Z,8.38
2023-03-19T00:11:18.695Z,8.41
2023-03-19T00:12:18.738Z,8.23
2023-03-19T00:13:18.680Z,8.24
2023-03-19T00:14:21.691Z,8.34
2023-03-19T00:15:21.667Z,8.33
2023-03-19T00:16:18.666Z,8.26
2023-03-19T00:17:18.610Z,8.34
2023-03-19T00:18:18.629Z,8.33
2023-03-19T00:19:18.572Z,8.28
2023-03-19T00:20:18.574Z,8.26
2023-03-19T00:21:18.613Z,8.09
2023-03-19T00:22:18.546Z,8.12
2023-03-19T00:23:18.531Z,8.23
2023-03-19T00:24:18.543Z,8.24
2023-03-19T00:25:18.508Z,8.19
2023-03-19T00:26:18.494Z,8.19
2023-03-19T00:27:18.496Z,8.01
2023-03-19T00:28:18.464Z,8.13
2023-03-19T00:29:18.446Z,7.91
2023-03-19T00:30:18.448Z,7.87
2023-03-19T00:31:18.416Z,7.83
2023-03-19T00:32:18.450Z,8.10
2023-03-19T00:33:18.401Z,7.88
2023-03-19T00:34:21.366Z,7.95
2023-03-19T00:35:21.370Z,7.88
2023-03-19T00:36:18.326Z,7.88
2023-03-19T00:37:18.324Z,8.09
2023-03-19T00:38:18.337Z,7.93
2023-03-19T00:39:18.330Z,7.76
2023-03-19T00:40:18.316Z,7.76
2023-03-19T00:41:18.260Z,7.79
2023-03-19T00:42:18.268Z,7.77
2023-03-19T00:43:18.267Z,7.87
2023-03-19T00:44:18.244Z,7.75
2023-03-19T00:45:18.250Z,7.73
2023-03-19T00:46:18.291Z,7.85
2023-03-19T00:47:18.191Z,8.10
2023-03-19T00:48:18.209Z,7.98
2023-03-19T00:49:18.246Z,7.94
2023-03-19T00:50:18.139Z,8.03
2023-03-19T00:51:18.141Z,7.82
2023-03-19T00:52:18.113Z,7.88
2023-03-19T00:53:18.103Z,7.75
2023-03-19T00:54:21.104Z,7.76
2023-03-19T00:55:21.091Z,7.97
2023-03-19T00:56:18.055Z,7.91
2023-03-19T00:57:18.062Z,7.87
2023-03-19T00:58:18.031Z,7.60
2023-03-19T00:59:18.006Z,7.58
2023-03-19T01:00:49.541Z,7.73
2023-03-19T01:01:49.513Z,7.66
2023-03-19T01:02:49.461Z,7.63
2023-03-19T01:03:49.429Z,7.60
2023-03-19T01:04:49.536Z,7.45
2023-03-19T01:05:54.651Z,7.42
2023-03-19T01:06:49.397Z,7.53
2023-03-19T01:07:49.391Z,7.38
2023-03-19T01:08:49.367Z,7.35
2023-03-19T01:09:49.358Z,7.42
2023-03-19T01:10:49.371Z,7.38
2023-03-19T01:11:49.364Z,7.35
2023-03-19T01:12:49.337Z,7.31
2023-03-19T01:13:49.359Z,7.28
2023-03-19T01:14:49.409Z,7.15
2023-03-19T01:15:49.286Z,7.45
2023-03-19T01:16:49.291Z,7.63
2023-03-19T01:17:49.287Z,7.85
2023-03-19T01:18:49.283Z,8.00
2023-03-19T01:19:52.252Z,7.90
2023-03-19T01:20:52.234Z,8.23
2023-03-19T01:21:49.218Z,8.42
2023-03-19T01:22:49.201Z,8.48
2023-03-19T01:23:49.262Z,8.51
2023-03-19T01:24:49.178Z,8.31
2023-03-19T01:25:49.161Z,8.34
2023-03-19T01:26:49.155Z,8.49
2023-03-19T01:27:49.152Z,8.41
2023-03-19T01:28:49.142Z,8.27
2023-03-19T01:29:49.145Z,8.10
2023-03-19T01:30:49.144Z,7.82
2023-03-19T01:31:49.084Z,7.70
2023-03-19T01:32:49.113Z,7.69
2023-03-19T01:33:49.083Z,7.54
2023-03-19T01:34:49.068Z,7.75
2023-03-19T01:35:49.079Z,7.73
2023-03-19T01:36:49.043Z,7.69
2023-03-19T01:37:49.025Z,7.67
2023-03-19T01:38:49.045Z,7.63
2023-03-19T01:39:52.003Z,7.60
2023-03-19T01:40:51.975Z,7.58
2023-03-19T01:41:48.977Z,7.57
2023-03-19T01:42:48.945Z,7.56
2023-03-19T01:43:48.938Z,7.54
2023-03-19T01:44:48.948Z,7.51
2023-03-19T01:45:51.229Z,7.51
2023-03-19T01:46:48.940Z,7.48
2023-03-19T01:47:48.895Z,7.47
2023-03-19T01:48:48.872Z,7.43
2023-03-19T01:49:48.857Z,7.39
2023-03-19T01:50:48.891Z,7.15
2023-03-19T01:51:48.848Z,7.25
2023-03-19T01:52:48.817Z,7.07
2023-03-19T01:53:48.795Z,7.25
2023-03-19T01:54:48.800Z,7.05
2023-03-19T01:55:48.767Z,7.39
2023-03-19T01:56:48.787Z,7.23
2023-03-19T01:57:48.746Z,7.43
2023-03-19T01:58:48.782Z,7.51
2023-03-19T01:59:51.717Z,7.60
2023-03-19T02:00:51.707Z,7.40
2023-03-19T02:01:48.722Z,7.54
2023-03-19T02:02:48.727Z,7.40
2023-03-19T02:03:48.659Z,7.28
2023-03-19T02:04:48.697Z,7.18
2023-03-19T02:05:48.629Z,6.92
2023-03-19T02:06:48.619Z,7.11
2023-03-19T02:07:48.621Z,7.20
2023-03-19T02:08:48.619Z,7.28
2023-03-19T02:09:48.589Z,7.10
2023-03-19T02:10:48.570Z,7.17
2023-03-19T02:11:48.569Z,7.40
2023-03-19T02:12:48.601Z,7.45
2023-03-19T02:13:48.593Z,7.47
2023-03-19T02:14:48.533Z,7.32
2023-03-19T02:15:48.532Z,7.47
2023-03-19T02:16:48.501Z,7.36
2023-03-19T02:17:48.491Z,7.36
2023-03-19T02:18:48.475Z,7.39
2023-03-19T02:19:51.511Z,7.38
2023-03-19T02:20:51.454Z,7.60
2023-03-19T02:21:48.428Z,7.50
2023-03-19T02:22:48.421Z,7.31
2023-03-19T02:23:48.435Z,7.45
2023-03-19T02:24:48.423Z,7.21
2023-03-19T02:25:48.422Z,7.24
2023-03-19T02:26:48.438Z,7.43
2023-03-19T02:27:48.385Z,7.25
2023-03-19T02:28:48.349Z,7.61
2023-03-19T02:29:49.436Z,7.83
2023-03-19T02:30:48.329Z,7.77
2023-03-19T02:31:48.467Z,7.77
2023-03-19T02:32:48.384Z,7.79
2023-03-19T02:33:48.269Z,7.95
2023-03-19T02:34:48.281Z,8.12
2023-03-19T02:35:48.280Z,8.10
2023-03-19T02:36:48.227Z,8.26
2023-03-19T02:37:48.274Z,8.23
2023-03-19T02:38:48.204Z,8.23
2023-03-19T02:39:51.186Z,8.20
2023-03-19T02:40:51.205Z,8.16
2023-03-19T02:41:48.166Z,8.23
2023-03-19T02:42:48.155Z,8.23
2023-03-19T02:43:48.164Z,8.19
2023-03-19T02:44:48.115Z,8.27
2023-03-19T02:45:48.126Z,8.28
2023-03-19T02:46:48.229Z,8.31
2023-03-19T02:47:48.128Z,8.24
2023-03-19T02:48:48.136Z,8.27
2023-03-19T02:49:48.112Z,8.27
2023-03-19T02:50:48.105Z,8.33
2023-03-19T02:51:48.031Z,8.31
2023-03-19T02:52:48.069Z,8.30
2023-03-19T02:53:47.999Z,8.28
2023-03-19T02:54:47.989Z,8.28
2023-03-19T02:55:47.978Z,8.30
2023-03-19T02:56:47.981Z,8.31
2023-03-19T02:57:47.958Z,8.38
2023-03-19T02:58:47.988Z,8.31
2023-03-19T02:59:50.922Z,8.41
2023-03-19T03:00:51.031Z,8.44
2023-03-19T03:01:47.984Z,8.42
2023-03-19T03:02:47.886Z,8.37
2023-03-19T03:03:47.873Z,8.44
2023-03-19T03:04:47.924Z,8.38
2023-03-19T03:05:47.851Z,8.38
2023-03-19T03:06:47.837Z,8.37
2023-03-19T03:07:47.819Z,8.38
2023-03-19T03:08:47.816Z,8.42
2023-03-19T03:09:47.789Z,8.44
2023-03-19T03:10:47.828Z,8.41
2023-03-19T03:11:47.768Z,8.44
2023-03-19T03:12:47.761Z,8.41
2023-03-19T03:13:47.751Z,8.63
2023-03-19T03:14:47.761Z,8.61
2023-03-19T03:15:47.730Z,8.42
2023-03-19T03:16:47.809Z,8.45
2023-03-19T03:17:47.694Z,8.42
2023-03-19T03:18:47.694Z,8.36
2023-03-19T03:19:50.677Z,8.34
2023-03-19T03:20:50.682Z,8.41
2023-03-19T03:21:47.641Z,8.33
2023-03-19T03:22:47.682Z,8.34
2023-03-19T03:23:47.605Z,8.33
2023-03-19T03:24:47.607Z,8.33
2023-03-19T03:25:47.605Z,8.49
2023-03-19T03:26:47.604Z,8.55
2023-03-19T03:27:47.566Z,8.51
2023-03-19T03:28:47.653Z,8.30
2023-03-19T03:29:47.568Z,8.44
2023-03-19T03:30:47.557Z,8.23
2023-03-19T03:31:47.575Z,8.26
2023-03-19T03:32:47.546Z,8.20
2023-03-19T03:33:47.511Z,8.36
2023-03-19T03:34:47.502Z,8.27
2023-03-19T03:35:47.519Z,8.26
2023-03-19T03:36:47.440Z,8.24
2023-03-19T03:37:47.442Z,8.27
2023-03-19T03:38:47.429Z,8.24
2023-03-19T03:39:50.446Z,8.27
2023-03-19T03:40:50.470Z,8.45
2023-03-19T03:41:47.396Z,8.30
2023-03-19T03:42:47.371Z,8.31
2023-03-19T03:43:47.359Z,8.30
2023-03-19T03:44:47.350Z,8.27
2023-03-19T03:45:47.431Z,8.28
2023-03-19T03:46:47.364Z,8.28
2023-03-19T03:47:47.305Z,8.27
2023-03-19T03:48:47.371Z,8.30
2023-03-19T03:49:47.293Z,8.24
2023-03-19T03:50:47.272Z,8.26
2023-03-19T03:51:47.306Z,8.27
2023-03-19T03:52:47.293Z,8.34
2023-03-19T03:53:47.224Z,8.30
2023-03-19T03:54:47.208Z,8.27
2023-03-19T03:55:47.209Z,8.27
2023-03-19T03:56:47.191Z,8.26
2023-03-19T03:57:47.185Z,8.28
2023-03-19T03:58:47.186Z,8.31
2023-03-19T03:59:50.144Z,8.36
2023-03-19T04:00:50.149Z,8.26
2023-03-19T04:01:47.205Z,8.28
2023-03-19T04:02:47.157Z,8.28
2023-03-19T04:03:47.134Z,8.27
2023-03-19T04:04:47.150Z,8.28
2023-03-19T04:05:47.071Z,8.19
2023-03-19T04:06:47.053Z,8.15
2023-03-19T04:07:47.043Z,8.13
2023-03-19T04:08:47.046Z,8.18
2023-03-19T04:09:47.012Z,8.09
2023-03-19T04:10:47.033Z,8.09
2023-03-19T04:11:47.014Z,8.06
2023-03-19T04:12:46.978Z,8.06
2023-03-19T04:13:46.977Z,8.26
2023-03-19T04:14:46.962Z,8.19
2023-03-19T04:15:47.012Z,7.98
2023-03-19T04:16:47.026Z,8.26
2023-03-19T04:17:46.923Z,8.08
2023-03-19T04:18:46.910Z,7.93
2023-03-19T04:19:49.895Z,7.90
2023-03-19T04:20:49.928Z,8.00
2023-03-19T04:21:46.862Z,7.95
2023-03-19T04:22:46.922Z,7.90
2023-03-19T04:23:46.848Z,7.93
2023-03-19T04:24:46.827Z,7.94
2023-03-19T04:25:46.796Z,7.95
2023-03-19T04:26:46.794Z,8.05
2023-03-19T04:27:46.778Z,7.95
2023-03-19T04:28:46.799Z,7.95
2023-03-19T04:29:46.798Z,8.03
2023-03-19T04:30:46.770Z,7.88
2023-03-19T04:31:46.716Z,7.95
2023-03-19T04:32:46.781Z,7.93
2023-03-19T04:33:46.745Z,7.91
2023-03-19T04:34:46.690Z,8.03
2023-03-19T04:35:46.692Z,7.93
2023-03-19T04:36:46.664Z,7.97
2023-03-19T04:37:46.658Z,8.18
2023-03-19T04:38:46.658Z,7.95
2023-03-19T04:39:49.660Z,7.93
2023-03-19T04:40:49.679Z,7.94
2023-03-19T04:41:46.602Z,7.90
2023-03-19T04:42:46.602Z,7.83
2023-03-19T04:43:46.579Z,8.01
2023-03-19T04:44:46.570Z,8.08
2023-03-19T04:45:46.603Z,7.87
2023-03-19T04:46:46.602Z,7.94
2023-03-19T04:47:46.530Z,7.95
2023-03-19T04:48:46.521Z,7.95
2023-03-19T04:49:46.490Z,8.09
2023-03-19T04:50:46.459Z,8.05
2023-03-19T04:51:46.459Z,8.00
2023-03-19T04:52:46.461Z,7.93
2023-03-19T04:53:46.468Z,7.91
2023-03-19T04:54:46.423Z,7.87
2023-03-19T04:55:46.401Z,7.91
2023-03-19T04:56:46.382Z,7.94
2023-03-19T04:57:46.441Z,7.93
2023-03-19T04:58:46.416Z,7.97
2023-03-19T04:59:49.380Z,7.90
2023-03-19T05:00:49.395Z,7.91
2023-03-19T05:01:46.383Z,7.95
2023-03-19T05:02:46.314Z,8.09
2023-03-19T05:03:46.329Z,7.97
2023-03-19T05:04:46.337Z,7.95
2023-03-19T05:05:46.282Z,8.00
2023-03-19T05:06:46.290Z,7.98
2023-03-19T05:07:46.252Z,8.05
2023-03-19T05:08:46.279Z,8.01
2023-03-19T05:09:46.263Z,8.05
2023-03-19T05:10:46.255Z,8.05
2023-03-19T05:11:46.207Z,8.05
2023-03-19T05:12:46.198Z,8.05
2023-03-19T05:13:46.216Z,8.05
2023-03-19T05:14:46.181Z,8.13
2023-03-19T05:15:46.295Z,8.00
2023-03-19T05:16:46.151Z,8.03
2023-03-19T05:17:46.171Z,7.98
2023-03-19T05:18:46.130Z,7.98
2023-03-19T05:19:49.098Z,8.01
2023-03-19T05:20:49.186Z,8.05
2023-03-19T05:21:46.089Z,8.10
2023-03-19T05:22:46.071Z,8.06
2023-03-19T05:23:46.071Z,8.06
2023-03-19T05:24:46.045Z,8.10
2023-03-19T05:25:46.041Z,8.05
2023-03-19T05:26:46.049Z,8.10
2023-03-19T05:27:46.035Z,8.05
2023-03-19T05:28:46.000Z,8.09
2023-03-19T05:29:45.972Z,8.08
2023-03-19T05:30:45.969Z,8.10
2023-03-19T05:31:45.971Z,8.10
2023-03-19T05:32:45.948Z,8.09
2023-03-19T05:33:45.934Z,8.19
2023-03-19T05:34:45.918Z,8.13
2023-03-19T05:35:46.033Z,8.23
2023-03-19T05:36:45.943Z,8.09
2023-03-19T05:37:45.883Z,8.13
2023-03-19T05:38:45.857Z,8.12
2023-03-19T05:39:48.852Z,8.15
2023-03-19T05:40:48.852Z,8.13
2023-03-19T05:41:45.812Z,8.15
2023-03-19T05:42:45.882Z,8.36
2023-03-19T05:43:45.815Z,8.20
2023-03-19T05:44:45.791Z,8.16
2023-03-19T05:45:45.783Z,8.20
2023-03-19T05:46:45.799Z,8.20
2023-03-19T05:47:45.736Z,8.20
2023-03-19T05:48:45.756Z,8.27
2023-03-19T05:49:45.732Z,8.44
2023-03-19T05:50:45.717Z,8.24
2023-03-19T05:51:45.702Z,8.28
2023-03-19T05:52:45.683Z,8.31
2023-03-19T05:53:45.735Z,8.23
2023-03-19T05:54:45.646Z,8.51
2023-03-19T05:55:45.637Z,8.52
2023-03-19T05:56:45.617Z,8.34
2023-03-19T05:57:45.616Z,8.30
2023-03-19T05:58:45.595Z,8.34
2023-03-19T05:59:48.638Z,8.31
2023-03-19T06:00:48.626Z,8.31
2023-03-19T06:01:45.615Z,8.53
2023-03-19T06:02:45.589Z,8.30
2023-03-19T06:03:45.568Z,8.31
2023-03-19T06:04:45.516Z,8.37
2023-03-19T06:05:45.546Z,8.36
2023-03-19T06:06:45.489Z,8.33
2023-03-19T06:07:45.487Z,8.37
2023-03-19T06:08:45.513Z,8.63
2023-03-19T06:09:45.476Z,8.48
2023-03-19T06:10:45.439Z,8.41
2023-03-19T06:11:45.492Z,8.67
2023-03-19T06:12:45.407Z,8.49
2023-03-19T06:13:45.417Z,8.44
2023-03-19T06:14:45.382Z,8.44
2023-03-19T06:15:45.411Z,8.48
2023-03-19T06:16:45.361Z,8.52
2023-03-19T06:17:45.388Z,8.49
2023-03-19T06:18:45.338Z,8.70
2023-03-19T06:19:48.324Z,8.69
2023-03-19T06:20:48.332Z,8.60
2023-03-19T06:21:45.295Z,8.52
2023-03-19T06:22:45.339Z,8.73
2023-03-19T06:23:45.393Z,8.56
2023-03-19T06:24:45.251Z,8.56
2023-03-19T06:25:45.231Z,8.61
2023-03-19T06:26:45.226Z,8.67
2023-03-19T06:27:45.238Z,8.61
2023-03-19T06:28:45.197Z,8.69
2023-03-19T06:29:45.246Z,8.71
2023-03-19T06:30:45.172Z,8.84
2023-03-19T06:31:45.277Z,8.73
2023-03-19T06:32:45.210Z,8.78
2023-03-19T06:33:45.183Z,8.76
2023-03-19T06:34:45.128Z,8.87
2023-03-19T06:35:45.191Z,8.88
2023-03-19T06:36:45.098Z,8.92
2023-03-19T06:37:45.090Z,8.92
2023-03-19T06:38:45.067Z,9.02
2023-03-19T06:39:48.039Z,9.16
2023-03-19T06:40:48.099Z,9.10
2023-03-19T06:41:45.020Z,9.23
2023-03-19T06:42:45.028Z,9.28
2023-03-19T06:43:44.992Z,9.36
2023-03-19T06:44:44.982Z,9.56
2023-03-19T06:45:45.012Z,9.43
2023-03-19T06:46:45.039Z,9.48
2023-03-19T06:47:44.929Z,9.73
2023-03-19T06:48:44.914Z,9.59
2023-03-19T06:49:44.913Z,9.64
2023-03-19T06:50:44.884Z,9.65
2023-03-19T06:51:44.873Z,9.65
2023-03-19T06:52:44.921Z,9.64
2023-03-19T06:53:44.922Z,9.65
2023-03-19T06:54:44.839Z,9.66
2023-03-19T06:55:44.828Z,9.65
2023-03-19T06:56:44.795Z,9.69
2023-03-19T06:57:44.794Z,9.64
2023-03-19T06:58:44.806Z,9.77
2023-03-19T06:59:47.778Z,9.69
2023-03-19T07:00:47.837Z,9.77
2023-03-19T07:01:44.740Z,9.86
2023-03-19T07:02:44.728Z,9.98
2023-03-19T07:03:44.816Z,9.97
2023-03-19T07:04:44.694Z,9.95
2023-03-19T07:05:44.691Z,10.05
2023-03-19T07:06:44.670Z,10.09
2023-03-19T07:07:44.659Z,10.30
2023-03-19T07:08:44.650Z,10.17
2023-03-19T07:09:44.662Z,10.23
2023-03-19T07:10:44.608Z,10.22
2023-03-19T07:11:44.615Z,10.51
2023-03-19T07:12:44.619Z,10.44
2023-03-19T07:13:44.595Z,10.42
2023-03-19T07:14:44.563Z,10.42
2023-03-19T07:15:44.566Z,10.56
2023-03-19T07:16:44.591Z,10.60
2023-03-19T07:17:44.557Z,10.68
2023-03-19T07:18:44.538Z,10.75
2023-03-19T07:19:47.481Z,10.81
2023-03-19T07:20:47.495Z,10.86
2023-03-19T07:21:44.470Z,10.87
2023-03-19T07:22:44.444Z,10.89
2023-03-19T07:23:44.487Z,11.02
2023-03-19T07:24:44.424Z,10.99
2023-03-19T07:25:44.414Z,10.99
2023-03-19T07:26:44.412Z,11.00
2023-03-19T07:27:44.446Z,11.04
2023-03-19T07:28:44.383Z,11.11
2023-03-19T07:29:44.356Z,11.19
2023-03-19T07:30:44.357Z,11.27
2023-03-19T07:31:44.410Z,11.48
2023-03-19T07:32:44.363Z,11.44
2023-03-19T07:33:44.348Z,11.51
2023-03-19T07:34:44.294Z,11.55
2023-03-19T07:35:44.317Z,11.63
2023-03-19T07:36:44.262Z,11.62
2023-03-19T07:37:44.261Z,11.63
2023-03-19T07:38:44.224Z,11.73
2023-03-19T07:39:47.261Z,11.78
2023-03-19T07:41:00.957Z,11.80
2023-03-19T07:41:45.194Z,11.70
2023-03-19T07:42:45.236Z,11.78
2023-03-19T07:43:44.206Z,11.83
2023-03-19T07:44:44.189Z,11.90
2023-03-19T07:45:44.185Z,11.95
2023-03-19T07:46:44.126Z,12.09
2023-03-19T07:47:44.108Z,12.12
2023-03-19T07:48:44.090Z,12.06
2023-03-19T07:49:44.087Z,12.21
2023-03-19T07:50:44.098Z,12.21
2023-03-19T07:51:44.047Z,12.27
2023-03-19T07:52:44.027Z,12.43
2023-03-19T07:53:44.038Z,12.50
2023-03-19T07:54:44.008Z,12.57
2023-03-19T07:55:44.029Z,12.57
2023-03-19T07:56:43.978Z,12.67
2023-03-19T07:57:43.978Z,12.68
2023-03-19T07:58:43.973Z,12.61
2023-03-19T07:59:46.971Z,12.62
2023-03-19T08:00:46.940Z,12.75
2023-03-19T08:01:43.953Z,12.75
2023-03-19T08:02:43.976Z,12.68
2023-03-19T08:03:43.901Z,12.72
2023-03-19T08:04:43.927Z,12.79
2023-03-19T08:05:43.899Z,12.82
2023-03-19T08:06:43.843Z,12.82
2023-03-19T08:07:43.874Z,12.78
2023-03-19T08:08:43.833Z,12.80
2023-03-19T08:09:43.813Z,12.86
2023-03-19T08:10:43.796Z,12.93
2023-03-19T08:11:43.792Z,13.00
2023-03-19T08:12:43.823Z,13.01
2023-03-19T08:13:43.754Z,13.04
2023-03-19T08:14:43.742Z,13.03
2023-03-19T08:15:43.724Z,13.03
2023-03-19T08:16:43.786Z,13.03
2023-03-19T08:17:43.701Z,13.11
2023-03-19T08:18:43.748Z,13.13
2023-03-19T08:19:46.688Z,13.37
2023-03-19T08:20:46.675Z,13.39
2023-03-19T08:21:43.639Z,13.44
2023-03-19T08:22:43.625Z,13.47
2023-03-19T08:23:43.620Z,13.52
2023-03-19T08:24:43.616Z,13.54
2023-03-19T08:25:43.587Z,13.54
2023-03-19T08:26:43.576Z,13.54
2023-03-19T08:27:43.569Z,13.60
2023-03-19T08:28:43.587Z,13.62
2023-03-19T08:29:43.539Z,13.65
2023-03-19T08:30:43.553Z,13.65
2023-03-19T08:31:43.605Z,13.68
2023-03-19T08:32:43.524Z,13.70
2023-03-19T08:33:43.489Z,13.71
2023-03-19T08:34:43.515Z,13.71
2023-03-19T08:35:43.540Z,13.78
2023-03-19T08:36:43.430Z,13.79
2023-03-19T08:37:43.432Z,13.77
2023-03-19T08:38:43.415Z,13.79
2023-03-19T08:39:46.421Z,13.86
2023-03-19T08:40:46.405Z,13.92
2023-03-19T08:41:43.361Z,13.97
2023-03-19T08:42:45.190Z,14.04
2023-03-19T08:43:43.356Z,14.11
2023-03-19T08:44:43.388Z,14.17
2023-03-19T08:45:43.311Z,14.20
2023-03-19T08:46:43.364Z,14.23
2023-03-19T08:47:43.311Z,14.25
2023-03-19T08:48:43.264Z,14.26
2023-03-19T08:49:43.259Z,14.32
2023-03-19T08:50:43.273Z,14.36
2023-03-19T08:51:43.255Z,14.37
2023-03-19T08:52:43.213Z,14.43
2023-03-19T08:53:43.207Z,14.47
2023-03-19T08:54:43.209Z,14.47
2023-03-19T08:55:43.174Z,14.50
2023-03-19T08:56:43.195Z,14.54
2023-03-19T08:57:43.150Z,14.59
2023-03-19T08:58:43.132Z,14.62
2023-03-19T08:59:46.169Z,14.63
2023-03-19T09:00:46.138Z,14.59
2023-03-19T09:01:43.147Z,14.53
2023-03-19T09:02:43.084Z,14.54
2023-03-19T09:03:43.078Z,14.54
2023-03-19T09:04:43.151Z,14.65
2023-03-19T09:05:43.041Z,14.72
2023-03-19T09:06:43.029Z,14.77
2023-03-19T09:07:43.021Z,14.78
2023-03-19T09:08:42.999Z,14.77
2023-03-19T09:09:42.993Z,14.69
2023-03-19T09:10:42.990Z,14.72
2023-03-19T09:11:42.988Z,14.77
2023-03-19T09:12:42.950Z,14.77
2023-03-19T09:13:42.946Z,14.82
2023-03-19T09:14:42.968Z,14.89
2023-03-19T09:15:42.944Z,14.97
2023-03-19T09:16:43.011Z,14.94
2023-03-19T09:17:42.886Z,15.02
2023-03-19T09:18:42.864Z,15.07
2023-03-19T09:19:45.862Z,15.15
2023-03-19T09:20:45.891Z,15.18
2023-03-19T09:21:42.861Z,15.25
2023-03-19T09:22:42.834Z,15.33
2023-03-19T09:23:42.805Z,15.31
2023-03-19T09:24:42.788Z,15.25
2023-03-19T09:25:42.778Z,15.27
2023-03-19T09:26:42.786Z,15.25
2023-03-19T09:27:42.777Z,15.28
2023-03-19T09:28:42.737Z,15.29
2023-03-19T09:29:42.732Z,15.27
2023-03-19T09:30:42.718Z,15.24
2023-03-19T09:31:42.763Z,15.27
2023-03-19T09:32:42.724Z,15.29
2023-03-19T09:33:42.726Z,15.29
2023-03-19T09:34:42.660Z,15.28
2023-03-19T09:35:42.785Z,15.31
2023-03-19T09:36:42.643Z,15.35
2023-03-19T09:37:42.628Z,15.29
2023-03-19T09:38:42.605Z,15.28
2023-03-19T09:39:45.618Z,15.29
2023-03-19T09:40:45.603Z,15.31
2023-03-19T09:41:42.564Z,15.35
2023-03-19T09:42:42.575Z,15.31
2023-03-19T09:43:42.592Z,15.36
2023-03-19T09:44:42.536Z,15.36
2023-03-19T09:45:42.530Z,15.39
2023-03-19T09:46:42.547Z,15.37
2023-03-19T09:47:42.490Z,15.39
2023-03-19T09:48:42.499Z,15.35
2023-03-19T09:49:42.481Z,15.35
2023-03-19T09:50:42.483Z,15.33
2023-03-19T09:51:42.464Z,15.33
2023-03-19T09:52:42.451Z,15.25
2023-03-19T09:53:42.416Z,15.18
2023-03-19T09:54:42.410Z,15.14
2023-03-19T09:55:42.420Z,15.17
2023-03-19T09:56:42.385Z,15.14
2023-03-19T09:57:42.372Z,15.11
2023-03-19T09:58:42.348Z,15.14
2023-03-19T09:59:45.404Z,15.18
2023-03-19T10:00:45.337Z,15.24
2023-03-19T10:01:42.425Z,15.31
2023-03-19T10:02:42.300Z,15.29
2023-03-19T10:03:42.307Z,15.33
2023-03-19T10:04:42.273Z,15.37
2023-03-19T10:05:42.279Z,15.43
2023-03-19T10:06:42.272Z,15.46
2023-03-19T10:07:42.247Z,15.49
2023-03-19T10:08:42.226Z,15.49
2023-03-19T10:09:42.195Z,15.52
2023-03-19T10:10:42.209Z,15.49
2023-03-19T10:11:42.233Z,15.49
2023-03-19T10:12:42.200Z,15.46
2023-03-19T10:13:42.135Z,15.49
2023-03-19T10:14:42.137Z,15.47
2023-03-19T10:15:42.108Z,15.44
2023-03-19T10:16:42.214Z,15.36
2023-03-19T10:17:42.117Z,15.35
2023-03-19T10:18:42.094Z,15.29
2023-03-19T10:19:45.219Z,15.24
2023-03-19T10:20:45.063Z,15.21
2023-03-19T10:21:42.028Z,15.21
2023-03-19T10:22:42.067Z,15.19
2023-03-19T10:23:42.018Z,15.18
2023-03-19T10:24:41.990Z,15.18
2023-03-19T10:25:41.990Z,15.14
2023-03-19T10:26:41.978Z,15.09
2023-03-19T10:27:41.946Z,15.09
2023-03-19T10:28:41.987Z,14.99
2023-03-19T10:29:41.943Z,14.94
2023-03-19T10:30:41.921Z,14.91
2023-03-19T10:31:41.958Z,14.91
2023-03-19T10:32:41.993Z,14.84
2023-03-19T10:33:41.940Z,14.84
2023-03-19T10:34:41.896Z,14.85
2023-03-19T10:35:41.941Z,14.81
2023-03-19T10:36:41.856Z,14.79
2023-03-19T10:37:41.826Z,14.78
2023-03-19T10:38:41.819Z,14.77
2023-03-19T10:39:44.834Z,14.73
2023-03-19T10:40:44.847Z,14.70
2023-03-19T10:41:41.781Z,14.70
2023-03-19T10:42:41.785Z,14.68
2023-03-19T10:43:41.778Z,14.65
2023-03-19T10:44:41.767Z,14.59
2023-03-19T10:45:42.188Z,14.55
2023-03-19T10:46:41.767Z,14.54
2023-03-19T10:47:41.699Z,14.53
2023-03-19T10:48:41.720Z,14.51
2023-03-19T10:49:41.692Z,14.55
2023-03-19T10:50:41.663Z,14.50
2023-03-19T10:51:41.697Z,14.47
2023-03-19T10:52:41.653Z,14.41
2023-03-19T10:53:41.645Z,14.29
2023-03-19T10:54:41.609Z,14.44
2023-03-19T10:55:41.595Z,14.45
2023-03-19T10:56:41.616Z,14.45
2023-03-19T10:57:41.584Z,14.48
2023-03-19T10:58:41.578Z,14.51
2023-03-19T10:59:44.556Z,14.54
2023-03-19T11:00:44.642Z,14.53
2023-03-19T11:01:41.516Z,14.51
2023-03-19T11:02:41.523Z,14.50
2023-03-19T11:03:41.516Z,14.51
2023-03-19T11:04:41.473Z,14.51
2023-03-19T11:05:41.458Z,14.53
2023-03-19T11:06:41.478Z,14.54
2023-03-19T11:07:41.457Z,14.54
2023-03-19T11:08:41.425Z,14.55
2023-03-19T11:09:41.427Z,14.58
2023-03-19T11:10:41.423Z,14.58
2023-03-19T11:11:41.408Z,14.60
2023-03-19T11:12:41.365Z,14.63
2023-03-19T11:13:41.354Z,14.66
2023-03-19T11:14:41.359Z,14.66
2023-03-19T11:15:41.316Z,14.73
2023-03-19T11:16:41.395Z,14.77
2023-03-19T11:17:41.327Z,14.81
2023-03-19T11:18:41.312Z,14.85
2023-03-19T11:19:44.298Z,14.91
2023-03-19T11:20:44.278Z,14.99
2023-03-19T11:21:41.259Z,15.06
2023-03-19T11:22:41.260Z,15.10
2023-03-19T11:23:41.245Z,15.18
2023-03-19T11:24:41.245Z,15.22
2023-03-19T11:25:41.198Z,15.29
2023-03-19T11:26:41.189Z,15.33
2023-03-19T11:27:41.235Z,15.36
2023-03-19T11:28:41.155Z,15.40
2023-03-19T11:29:41.156Z,15.44
2023-03-19T11:30:41.139Z,15.52
2023-03-19T11:31:41.151Z,15.54
2023-03-19T11:32:41.191Z,15.65
2023-03-19T11:33:41.114Z,15.77
2023-03-19T11:34:41.079Z,15.86
2023-03-19T11:35:41.071Z,15.94
2023-03-19T11:36:41.052Z,16.02
2023-03-19T11:37:41.042Z,16.12
2023-03-19T11:38:41.061Z,16.16
2023-03-19T11:39:44.015Z,16.16
2023-03-19T11:40:44.014Z,16.17
2023-03-19T11:41:41.001Z,16.16
2023-03-19T11:42:41.006Z,16.16
2023-03-19T11:43:40.955Z,16.12
2023-03-19T11:44:40.976Z,16.05
2023-03-19T11:45:42.244Z,16.05
2023-03-19T11:46:40.918Z,16.00
2023-03-19T11:47:40.888Z,15.98
2023-03-19T11:48:40.929Z,15.97
2023-03-19T11:49:40.869Z,15.97
2023-03-19T11:50:40.857Z,15.98
2023-03-19T11:51:40.830Z,16.01
2023-03-19T11:52:40.828Z,15.97
2023-03-19T11:53:40.847Z,15.98
2023-03-19T11:54:40.804Z,15.88
2023-03-19T11:55:40.894Z,15.95
2023-03-19T11:56:40.884Z,16.17
2023-03-19T11:57:40.916Z,16.26
2023-03-19T11:58:40.889Z,16.28
2023-03-19T11:59:43.793Z,16.33
2023-03-19T12:00:43.766Z,16.33
2023-03-19T12:01:40.709Z,16.33
2023-03-19T12:02:40.746Z,16.29
2023-03-19T12:03:40.738Z,16.24
2023-03-19T12:04:40.660Z,16.23
2023-03-19T12:05:40.681Z,16.17
2023-03-19T12:06:40.659Z,16.12
2023-03-19T12:07:40.619Z,16.10
2023-03-19T12:08:40.611Z,16.04
2023-03-19T12:09:40.590Z,16.05
2023-03-19T12:10:40.589Z,16.01
2023-03-19T12:11:40.590Z,15.98
2023-03-19T12:12:40.552Z,15.92
2023-03-19T12:13:40.550Z,15.80
2023-03-19T12:14:40.553Z,15.75
2023-03-19T12:15:40.588Z,15.68
2023-03-19T12:16:46.121Z,15.62
2023-03-19T12:17:41.502Z,15.59
2023-03-19T12:18:40.465Z,15.58
2023-03-19T12:19:43.446Z,15.52
2023-03-19T12:20:43.486Z,15.39
2023-03-19T12:21:40.436Z,15.37
2023-03-19T12:22:40.423Z,15.36
2023-03-19T12:23:40.397Z,15.35
2023-03-19T12:24:40.390Z,15.28
2023-03-19T12:25:40.373Z,15.27
2023-03-19T12:26:40.381Z,15.25
2023-03-19T12:27:40.358Z,15.22
2023-03-19T12:28:40.328Z,15.18
2023-03-19T12:29:40.299Z,15.18
2023-03-19T12:30:40.288Z,15.15
2023-03-19T12:31:40.311Z,15.14
2023-03-19T12:32:40.291Z,15.14
2023-03-19T12:33:40.306Z,15.14
2023-03-19T12:34:40.247Z,15.09
2023-03-19T12:35:40.268Z,15.07
2023-03-19T12:36:40.217Z,15.06
2023-03-19T12:37:40.191Z,15.07
2023-03-19T12:38:40.176Z,15.07
2023-03-19T12:39:43.189Z,15.09
2023-03-19T12:40:43.189Z,15.09
2023-03-19T12:41:40.140Z,15.11
2023-03-19T12:42:40.149Z,15.11
2023-03-19T12:43:40.126Z,15.14
2023-03-19T12:44:40.130Z,15.11
2023-03-19T12:45:40.090Z,15.14
2023-03-19T12:46:40.141Z,15.11
2023-03-19T12:47:40.062Z,15.17
2023-03-19T12:48:40.069Z,15.15
2023-03-19T12:49:40.073Z,15.15
2023-03-19T12:50:40.028Z,15.15
2023-03-19T12:51:40.011Z,15.17
2023-03-19T12:52:40.004Z,15.10
2023-03-19T12:53:40.040Z,15.07
2023-03-19T12:54:39.976Z,14.99
2023-03-19T12:55:40.069Z,14.96
2023-03-19T12:56:39.944Z,14.94
2023-03-19T12:57:39.926Z,14.91
2023-03-19T12:58:39.936Z,14.88
2023-03-19T12:59:42.977Z,14.85
2023-03-19T13:00:42.926Z,14.85
2023-03-19T13:01:39.971Z,14.84
2023-03-19T13:02:39.897Z,14.84
2023-03-19T13:03:39.849Z,14.82
2023-03-19T13:04:40.031Z,14.84
2023-03-19T13:05:39.926Z,14.86
2023-03-19T13:06:39.818Z,14.88